Supreme Ace — 3ETV4 — position and weather

sailwx.info

Track history (hours):
 
Tides and Currents Weather Stations Pressure Air Temp Water Temp Dewpoint Dewpoint Depression Visibility Wind Speed Wind Dir Waves Ship Positions

Supreme Ace

Last reported at 2018-Jun-15 22:00 UTC. Time now 2018-Jun-22 13:24 UTC.
Position N 05°10' W 000°19'.

Length 200 m; draft 7.9 m.

Type: Cargo ship. MMSI: 357147000.

Date/timePositionNaut miles runAvg speedWind from/ knotsBaromVisibWave heightAir tempDewpointWater temp
2018-Jun-15 22:00N 05°10' W 000°19'34 6.4
2018-Jun-15 16:36N 05°38' E 000°01'0 0.0
2018-Jun-15 16:30N 05°38' E 000°01'0 0.0
2018-Jun-15 16:00N 05°38' E 000°01'0 0.0
2018-Jun-15 15:30N 05°38' E 000°01'0 0.0
2018-Jun-15 15:00N 05°38' E 000°01'0 0.0
2018-Jun-15 14:30N 05°38' E 000°01'0 0.0
2018-Jun-15 14:00N 05°38' E 000°01'0 0.0
2018-Jun-15 13:30N 05°38' E 000°01'0 0.0
2018-Jun-15 13:00N 05°38' E 000°01'0 0.0
2018-Jun-15 12:30N 05°38' E 000°01'0 0.0
2018-Jun-15 12:00N 05°38' E 000°01'0 0.0
2018-Jun-15 11:27N 05°38' E 000°01'0 0.0
2018-Jun-15 11:00N 05°38' E 000°01'0 0.0
2018-Jun-15 10:30N 05°38' E 000°01'0 0.0
2018-Jun-15 10:00N 05°38' E 000°01'0 0.0
2018-Jun-15 09:30N 05°38' E 000°01'0 0.0
2018-Jun-15 09:00N 05°38' E 000°01'0 0.0
2018-Jun-15 08:30N 05°38' E 000°01'0 0.0
2018-Jun-15 08:00N 05°38' E 000°01'0 0.0
2018-Jun-15 07:30N 05°38' E 000°01'0 0.0
2018-Jun-15 07:00N 05°38' E 000°01'0 0.7
2018-Jun-15 06:30N 05°38' E 000°01'2 3.5
2018-Jun-15 06:00N 05°38' E 000°03'2 3.5
2018-Jun-15 05:30N 05°36' E 000°04'3 5.4
2018-Jun-15 05:00N 05°35' E 000°06'3 6.1
2018-Jun-15 04:30N 05°34' E 000°09'4 8.7
2018-Jun-15 04:00N 05°34' E 000°13'611.0
2018-Jun-15 03:30N 05°34' E 000°19'612.1
2018-Jun-15 03:00N 05°34' E 000°25'612.1
2018-Jun-15 02:30N 05°34' E 000°31'3711.9
2018-Jun-14 23:23N 05°37' E 001°08'  
2018-Jun-05 22:01S 07°41' E 011°20'016.0
2018-Jun-05 22:00S 07°41' E 011°20'  
Track history (hours):
 
Tides and Currents Weather Stations Pressure Air Temp Water Temp Dewpoint Dewpoint Depression Visibility Wind Speed Wind Dir Waves Ship Positions

Supreme Ace

Last reported at 2018-Jun-15 22:00 UTC. Time now 2018-Jun-22 13:24 UTC.
Position N 05°10' W 000°19'.

Length 200 m; draft 7.9 m.

Type: Cargo ship. MMSI: 357147000.

Date/timePositionNaut miles runAvg speedWind from/ knotsBaromVisibWave heightAir tempDewpointWater temp
2018-Jun-15 22:00N 05°10' W 000°19'34 6.4
2018-Jun-15 16:36N 05°38' E 000°01'0 0.0
2018-Jun-15 16:30N 05°38' E 000°01'0 0.0
2018-Jun-15 16:00N 05°38' E 000°01'0 0.0
2018-Jun-15 15:30N 05°38' E 000°01'0 0.0
2018-Jun-15 15:00N 05°38' E 000°01'0 0.0
2018-Jun-15 14:30N 05°38' E 000°01'0 0.0
2018-Jun-15 14:00N 05°38' E 000°01'0 0.0
2018-Jun-15 13:30N 05°38' E 000°01'0 0.0
2018-Jun-15 13:00N 05°38' E 000°01'0 0.0
2018-Jun-15 12:30N 05°38' E 000°01'0 0.0
2018-Jun-15 12:00N 05°38' E 000°01'0 0.0
2018-Jun-15 11:27N 05°38' E 000°01'0 0.0
2018-Jun-15 11:00N 05°38' E 000°01'0 0.0
2018-Jun-15 10:30N 05°38' E 000°01'0 0.0
2018-Jun-15 10:00N 05°38' E 000°01'0 0.0
2018-Jun-15 09:30N 05°38' E 000°01'0 0.0
2018-Jun-15 09:00N 05°38' E 000°01'0 0.0
2018-Jun-15 08:30N 05°38' E 000°01'0 0.0
2018-Jun-15 08:00N 05°38' E 000°01'0 0.0
2018-Jun-15 07:30N 05°38' E 000°01'0 0.0
2018-Jun-15 07:00N 05°38' E 000°01'0 0.7
2018-Jun-15 06:30N 05°38' E 000°01'2 3.5
2018-Jun-15 06:00N 05°38' E 000°03'2 3.5
2018-Jun-15 05:30N 05°36' E 000°04'3 5.4
2018-Jun-15 05:00N 05°35' E 000°06'3 6.1
2018-Jun-15 04:30N 05°34' E 000°09'4 8.7
2018-Jun-15 04:00N 05°34' E 000°13'611.0
2018-Jun-15 03:30N 05°34' E 000°19'612.1
2018-Jun-15 03:00N 05°34' E 000°25'612.1
2018-Jun-15 02:30N 05°34' E 000°31'3711.9
2018-Jun-14 23:23N 05°37' E 001°08'  
2018-Jun-05 22:01S 07°41' E 011°20'016.0
2018-Jun-05 22:00S 07°41' E 011°20'  

Dump ship's entire track history